createdAt,value
2023-05-08T00:00:33.957Z,55.30
2023-05-08T00:03:00.936Z,55.30
2023-05-08T00:05:27.824Z,55.30
2023-05-08T00:08:01.110Z,55.20
2023-05-08T00:10:29.004Z,55.30
2023-05-08T00:12:56.660Z,55.40
2023-05-08T00:15:23.523Z,55.30
2023-05-08T00:17:50.373Z,55.30
2023-05-08T00:20:17.176Z,55.40
2023-05-08T00:22:44.046Z,55.30
2023-05-08T00:25:10.938Z,55.30
2023-05-08T00:27:37.652Z,55.30
2023-05-08T00:30:06.112Z,55.40
2023-05-08T00:32:32.928Z,55.30
2023-05-08T00:35:00.231Z,55.40
2023-05-08T00:37:27.163Z,55.40
2023-05-08T00:39:53.949Z,55.50
2023-05-08T00:42:21.149Z,55.40
2023-05-08T00:44:48.062Z,55.40
2023-05-08T00:47:15.072Z,55.40
2023-05-08T00:49:42.736Z,55.50
2023-05-08T00:52:10.125Z,55.50
2023-05-08T00:54:38.046Z,55.40
2023-05-08T00:57:07.713Z,55.30
2023-05-08T00:59:36.102Z,55.40
2023-05-08T01:02:03.379Z,55.40
2023-05-08T01:04:31.726Z,55.50
2023-05-08T01:06:59.008Z,55.50
2023-05-08T01:09:25.877Z,55.40
2023-05-08T01:12:14.078Z,55.40
2023-05-08T01:15:11.880Z,55.40
2023-05-08T01:17:56.028Z,55.40
2023-05-08T01:20:40.147Z,56.00
2023-05-08T01:23:12.748Z,55.40
2023-05-08T01:26:07.885Z,56.50
2023-05-08T01:28:41.552Z,56.00
2023-05-08T01:31:46.140Z,55.40
2023-05-08T01:34:27.011Z,55.30
2023-05-08T01:37:11.371Z,55.30
2023-05-08T01:39:56.852Z,55.40
2023-05-08T01:42:50.671Z,55.50
2023-05-08T01:45:30.968Z,55.40
2023-05-08T01:48:08.167Z,55.40
2023-05-08T01:50:39.310Z,55.40
2023-05-08T01:53:13.775Z,55.40
2023-05-08T01:55:43.741Z,55.40
2023-05-08T01:58:11.688Z,54.70
2023-05-08T02:00:41.467Z,55.30
2023-05-08T02:03:10.724Z,55.30
2023-05-08T02:05:38.539Z,55.30
2023-05-08T02:08:09.114Z,55.30
2023-05-08T02:10:37.884Z,55.20
2023-05-08T02:13:06.190Z,55.20
2023-05-08T02:15:36.588Z,55.30
2023-05-08T02:18:08.749Z,55.30
2023-05-08T02:20:36.982Z,55.30
2023-05-08T02:23:04.081Z,55.30
2023-05-08T02:25:32.428Z,55.40
2023-05-08T02:27:59.691Z,55.30
2023-05-08T02:30:27.282Z,55.40
2023-05-08T02:32:59.687Z,55.90
2023-05-08T02:35:29.269Z,55.20
2023-05-08T02:37:58.534Z,54.60
2023-05-08T02:40:29.343Z,55.30
2023-05-08T02:42:56.665Z,55.30
2023-05-08T02:45:32.997Z,55.40
2023-05-08T02:48:17.267Z,55.30
2023-05-08T02:51:03.012Z,55.30
2023-05-08T02:53:40.724Z,55.30
2023-05-08T02:56:20.452Z,55.20
2023-05-08T02:58:57.722Z,55.30
2023-05-08T03:01:33.183Z,55.30
2023-05-08T03:04:08.725Z,55.30
2023-05-08T03:06:40.257Z,56.00
2023-05-08T03:09:10.937Z,55.40
2023-05-08T03:11:42.124Z,55.40
2023-05-08T03:14:14.898Z,55.30
2023-05-08T03:16:45.759Z,55.40
2023-05-08T03:19:23.368Z,55.30
2023-05-08T03:21:53.143Z,56.00
2023-05-08T03:24:22.552Z,55.30
2023-05-08T03:26:49.729Z,55.40
2023-05-08T03:29:18.494Z,55.40
2023-05-08T03:31:47.340Z,55.30
2023-05-08T03:34:15.920Z,55.30
2023-05-08T03:36:43.105Z,56.10
2023-05-08T03:39:10.396Z,55.30
2023-05-08T03:41:37.574Z,55.30
2023-05-08T03:44:05.100Z,55.30
2023-05-08T03:46:34.436Z,55.20
2023-05-08T03:49:08.743Z,55.30
2023-05-08T03:51:39.312Z,55.20
2023-05-08T03:54:06.315Z,55.20
2023-05-08T03:56:34.425Z,55.30
2023-05-08T03:59:14.270Z,55.30
2023-05-08T04:01:52.321Z,55.30
2023-05-08T04:04:30.328Z,55.30
2023-05-08T04:07:08.568Z,55.30
2023-05-08T04:10:12.198Z,55.90
2023-05-08T04:13:15.989Z,55.20
2023-05-08T04:15:52.349Z,55.20
2023-05-08T04:18:28.194Z,55.30
2023-05-08T04:20:57.796Z,55.30
2023-05-08T04:23:27.142Z,55.30
2023-05-08T04:25:56.556Z,55.30
2023-05-08T04:28:23.837Z,55.20
2023-05-08T04:30:51.855Z,55.30
2023-05-08T04:33:19.040Z,55.30
2023-05-08T04:35:46.257Z,55.30
2023-05-08T04:38:13.426Z,55.30
2023-05-08T04:40:40.654Z,55.20
2023-05-08T04:43:09.409Z,55.00
2023-05-08T04:45:36.883Z,55.00
2023-05-08T04:48:03.953Z,54.90
2023-05-08T04:50:30.917Z,54.90
2023-05-08T04:52:57.936Z,55.00
2023-05-08T04:55:24.833Z,55.10
2023-05-08T04:57:52.360Z,55.00
2023-05-08T05:00:20.346Z,54.80
2023-05-08T05:02:47.287Z,54.80
2023-05-08T05:05:14.370Z,55.10
2023-05-08T05:07:41.458Z,54.80
2023-05-08T05:10:09.008Z,54.70
2023-05-08T05:12:35.824Z,54.50
2023-05-08T05:15:03.426Z,53.80
2023-05-08T05:17:33.550Z,54.40
2023-05-08T05:20:00.663Z,54.40
2023-05-08T05:22:28.726Z,54.40
2023-05-08T05:24:55.576Z,54.40
2023-05-08T05:27:22.355Z,54.30
2023-05-08T05:29:49.525Z,54.30
2023-05-08T05:32:16.747Z,54.30
2023-05-08T05:34:43.755Z,54.30
2023-05-08T05:37:10.708Z,54.20
2023-05-08T05:39:38.279Z,54.10
2023-05-08T05:42:06.217Z,54.10
2023-05-08T05:44:33.106Z,55.20
2023-05-08T05:47:00.310Z,54.50
2023-05-08T05:49:27.249Z,54.10
2023-05-08T05:51:54.004Z,54.00
2023-05-08T05:54:21.059Z,54.00
2023-05-08T05:56:48.360Z,54.00
2023-05-08T05:59:15.191Z,53.90
2023-05-08T06:01:42.101Z,53.90
2023-05-08T06:04:08.998Z,53.80
2023-05-08T06:06:35.881Z,54.00
2023-05-08T06:09:04.214Z,54.00
2023-05-08T06:11:31.272Z,53.80
2023-05-08T06:13:58.152Z,53.80
2023-05-08T06:16:25.042Z,53.80
2023-05-08T06:18:51.905Z,53.80
2023-05-08T06:21:18.994Z,53.80
2023-05-08T06:23:46.000Z,54.70
2023-05-08T06:26:12.804Z,53.80
2023-05-08T06:28:39.607Z,53.70
2023-05-08T06:31:06.552Z,53.80
2023-05-08T06:33:33.403Z,53.70
2023-05-08T06:36:00.574Z,53.60
2023-05-08T06:38:27.462Z,53.70
2023-05-08T06:40:55.189Z,53.50
2023-05-08T06:43:22.238Z,53.50
2023-05-08T06:45:49.365Z,53.60
2023-05-08T06:48:16.207Z,53.40
2023-05-08T06:50:43.276Z,53.40
2023-05-08T06:53:10.160Z,54.00
2023-05-08T06:55:37.052Z,53.60
2023-05-08T06:58:04.270Z,53.50
2023-05-08T07:00:31.227Z,54.00
2023-05-08T07:02:58.130Z,53.80
2023-05-08T07:05:26.910Z,52.60
2023-05-08T07:07:54.146Z,53.80
2023-05-08T07:10:22.854Z,52.60
2023-05-08T07:12:50.109Z,52.70
2023-05-08T07:15:25.405Z,54.00
2023-05-08T07:17:54.175Z,53.60
2023-05-08T07:20:21.703Z,53.50
2023-05-08T07:22:50.225Z,54.10
2023-05-08T07:25:17.171Z,52.60
2023-05-08T07:27:43.997Z,53.90
2023-05-08T07:30:11.186Z,53.60
2023-05-08T07:32:39.177Z,54.20
2023-05-08T07:35:10.456Z,53.70
2023-05-08T07:37:38.757Z,53.30
2023-05-08T07:40:06.204Z,53.30
2023-05-08T07:42:42.121Z,53.40
2023-05-08T07:45:10.606Z,52.90
2023-05-08T07:47:38.460Z,52.50
2023-05-08T07:50:06.822Z,53.20
2023-05-08T07:52:33.669Z,53.70
2023-05-08T07:55:00.582Z,53.50
2023-05-08T07:57:27.440Z,53.50
2023-05-08T07:59:54.311Z,53.10
2023-05-08T08:02:21.326Z,53.30
2023-05-08T08:04:49.466Z,53.30
2023-05-08T08:07:16.227Z,53.00
2023-05-08T08:09:43.321Z,52.00
2023-05-08T08:12:10.344Z,52.00
2023-05-08T08:14:37.332Z,53.80
2023-05-08T08:17:04.209Z,53.20
2023-05-08T08:19:31.305Z,53.30
2023-05-08T08:21:58.207Z,51.70
2023-05-08T08:24:25.652Z,52.60
2023-05-08T08:26:52.396Z,52.50
2023-05-08T08:29:19.250Z,52.80
2023-05-08T08:31:46.236Z,51.60
2023-05-08T08:34:13.578Z,52.70
2023-05-08T08:36:40.623Z,52.20
2023-05-08T08:39:09.108Z,51.40
2023-05-08T08:41:39.773Z,51.40
2023-05-08T08:44:07.069Z,51.40
2023-05-08T08:46:38.979Z,52.30
2023-05-08T08:49:08.487Z,52.70
2023-05-08T08:51:54.101Z,52.00
2023-05-08T08:54:23.619Z,52.00
2023-05-08T08:56:51.931Z,52.10
2023-05-08T08:59:19.896Z,52.40
2023-05-08T09:01:51.510Z,52.00
2023-05-08T09:04:18.650Z,52.20
2023-05-08T09:06:46.363Z,52.40
2023-05-08T09:09:13.593Z,52.20
2023-05-08T09:11:41.456Z,52.40
2023-05-08T09:14:08.724Z,52.70
2023-05-08T09:16:35.930Z,52.70
2023-05-08T09:19:04.478Z,52.40
2023-05-08T09:21:32.376Z,52.10
2023-05-08T09:24:04.639Z,52.00
2023-05-08T09:26:38.395Z,52.10
2023-05-08T09:29:14.140Z,51.90
2023-05-08T09:31:43.664Z,51.80
2023-05-08T09:34:22.580Z,52.10
2023-05-08T09:36:50.080Z,51.80
2023-05-08T09:39:25.584Z,52.00
2023-05-08T09:42:00.688Z,52.00
2023-05-08T09:44:27.815Z,51.20
2023-05-08T09:47:15.149Z,52.50
2023-05-08T09:50:00.384Z,51.30
2023-05-08T09:52:31.658Z,52.10
2023-05-08T09:55:09.287Z,52.00
2023-05-08T09:57:39.324Z,51.90
2023-05-08T10:00:11.510Z,52.10
2023-05-08T10:02:53.362Z,51.20
2023-05-08T10:05:27.385Z,52.20
2023-05-08T10:07:54.582Z,52.40
2023-05-08T10:10:26.690Z,52.20
2023-05-08T10:12:58.484Z,52.80
2023-05-08T10:15:29.493Z,52.00
2023-05-08T10:18:07.181Z,52.00
2023-05-08T10:20:38.327Z,51.70
2023-05-08T10:23:11.320Z,51.80
2023-05-08T10:25:47.624Z,51.80
2023-05-08T10:28:36.906Z,51.70
2023-05-08T10:31:05.969Z,51.70
2023-05-08T10:33:35.064Z,51.80
2023-05-08T10:36:03.217Z,51.70
2023-05-08T10:38:31.624Z,51.70
2023-05-08T10:41:01.124Z,51.60
2023-05-08T10:43:30.340Z,51.90
2023-05-08T10:45:58.836Z,51.60
2023-05-08T10:48:38.957Z,52.00
2023-05-08T10:51:08.094Z,51.60
2023-05-08T10:53:42.594Z,51.80
2023-05-08T10:56:09.569Z,51.70
2023-05-08T10:58:39.155Z,51.70
2023-05-08T11:01:09.167Z,51.60
2023-05-08T11:03:47.255Z,51.70
2023-05-08T11:06:14.883Z,51.70
2023-05-08T11:08:50.302Z,51.90
2023-05-08T11:11:29.348Z,52.00
2023-05-08T11:14:09.437Z,52.20
2023-05-08T11:16:54.926Z,51.90
2023-05-08T11:19:24.308Z,52.90
2023-05-08T11:22:13.954Z,52.20
2023-05-08T11:24:47.191Z,51.80
2023-05-08T11:27:15.650Z,52.30
2023-05-08T11:29:42.854Z,51.80
2023-05-08T11:32:09.800Z,52.70
2023-05-08T11:34:43.107Z,51.10
2023-05-08T11:37:21.193Z,52.60
2023-05-08T11:39:48.521Z,51.70
2023-05-08T11:42:27.332Z,52.70
2023-05-08T11:45:00.269Z,52.70
2023-05-08T11:47:39.109Z,52.00
2023-05-08T11:50:09.002Z,51.50
2023-05-08T11:52:37.516Z,51.90
2023-05-08T11:55:09.766Z,51.50
2023-05-08T11:57:36.797Z,51.80
2023-05-08T12:00:08.319Z,52.10
2023-05-08T12:02:42.555Z,51.80
2023-05-08T12:05:11.014Z,51.70
2023-05-08T12:07:47.685Z,51.40
2023-05-08T12:10:16.450Z,51.30
2023-05-08T12:12:44.916Z,51.50
2023-05-08T12:15:13.651Z,52.20
2023-05-08T12:17:41.647Z,51.30
2023-05-08T12:20:21.699Z,51.30
2023-05-08T12:22:52.825Z,51.60
2023-05-08T12:25:20.421Z,51.70
2023-05-08T12:27:47.555Z,51.70
2023-05-08T12:30:15.194Z,51.80
2023-05-08T12:32:43.499Z,52.00
2023-05-08T12:35:12.126Z,51.20
2023-05-08T12:37:39.521Z,51.60
2023-05-08T12:40:07.582Z,51.30
2023-05-08T12:42:49.119Z,51.20
2023-05-08T12:45:28.053Z,51.10
2023-05-08T12:47:59.742Z,51.80
2023-05-08T12:50:26.822Z,51.00
2023-05-08T12:52:53.977Z,51.80
2023-05-08T12:55:28.760Z,51.80
2023-05-08T12:58:04.291Z,51.10
2023-05-08T13:01:11.916Z,51.10
2023-05-08T13:03:40.150Z,51.10
2023-05-08T13:06:07.999Z,51.10
2023-05-08T13:08:36.983Z,51.10
2023-05-08T13:11:05.697Z,51.10
2023-05-08T13:13:35.106Z,51.00
2023-05-08T13:16:04.549Z,51.00
2023-05-08T13:18:31.510Z,50.90
2023-05-08T13:20:58.833Z,50.90
2023-05-08T13:23:25.670Z,50.80
2023-05-08T13:25:52.472Z,50.80
2023-05-08T13:28:19.390Z,50.80
2023-05-08T13:30:46.267Z,50.80
2023-05-08T13:33:13.157Z,50.80
2023-05-08T13:35:40.711Z,51.00
2023-05-08T13:38:07.606Z,51.00
2023-05-08T13:40:34.474Z,51.20
2023-05-08T13:43:01.277Z,52.10
2023-05-08T13:45:28.114Z,52.50
2023-05-08T13:47:55.435Z,52.90
2023-05-08T13:50:22.886Z,53.00
2023-05-08T13:52:51.682Z,52.80
2023-05-08T13:55:22.550Z,52.70
2023-05-08T13:57:49.377Z,52.90
2023-05-08T14:00:18.049Z,53.00
2023-05-08T14:02:44.969Z,53.20
2023-05-08T14:05:12.145Z,53.20
2023-05-08T14:07:39.217Z,53.10
2023-05-08T14:10:06.460Z,53.10
2023-05-08T14:12:36.008Z,53.00
2023-05-08T14:15:04.973Z,53.10
2023-05-08T14:17:32.064Z,53.10
2023-05-08T14:19:59.175Z,53.00
2023-05-08T14:22:26.012Z,52.90
2023-05-08T14:24:53.097Z,52.80
2023-05-08T14:27:20.147Z,52.60
2023-05-08T14:29:47.136Z,52.60
2023-05-08T14:32:13.986Z,52.40
2023-05-08T14:34:40.850Z,52.50
2023-05-08T14:37:07.766Z,52.60
2023-05-08T14:39:34.990Z,52.50
2023-05-08T14:42:21.312Z,53.00
2023-05-08T14:44:49.473Z,52.70
2023-05-08T14:47:16.336Z,52.70
2023-05-08T14:49:43.348Z,52.50
2023-05-08T14:52:10.151Z,52.40
2023-05-08T14:54:37.080Z,52.40
2023-05-08T14:57:04.106Z,52.40
2023-05-08T14:59:30.974Z,52.60
2023-05-08T15:01:57.829Z,52.40
2023-05-08T15:04:24.764Z,52.60
2023-05-08T15:06:51.604Z,52.50
2023-05-08T15:09:18.455Z,53.20
2023-05-08T15:11:45.277Z,52.30
2023-05-08T15:14:12.154Z,52.20
2023-05-08T15:16:39.062Z,52.30
2023-05-08T15:19:06.053Z,52.20
2023-05-08T15:21:32.854Z,52.00
2023-05-08T15:23:59.760Z,51.90
2023-05-08T15:26:26.654Z,51.80
2023-05-08T15:28:53.492Z,51.90
2023-05-08T15:31:20.920Z,51.90
2023-05-08T15:33:48.193Z,52.00
2023-05-08T15:36:15.515Z,52.10
2023-05-08T15:38:43.699Z,52.10
2023-05-08T15:41:14.742Z,52.10
2023-05-08T15:43:43.264Z,52.00
2023-05-08T15:46:10.352Z,52.00
2023-05-08T15:48:37.380Z,51.90
2023-05-08T15:51:04.219Z,51.90
2023-05-08T15:53:32.258Z,51.80
2023-05-08T15:55:59.097Z,51.90
2023-05-08T15:58:26.669Z,52.00
2023-05-08T16:00:53.565Z,52.00
2023-05-08T16:03:20.567Z,52.00
2023-05-08T16:05:47.790Z,52.00
2023-05-08T16:08:14.711Z,52.00
2023-05-08T16:10:42.125Z,51.80
2023-05-08T16:13:09.399Z,51.80
2023-05-08T16:15:36.370Z,51.80
2023-05-08T16:18:03.401Z,51.70
2023-05-08T16:20:31.637Z,51.60
2023-05-08T16:23:00.247Z,51.50
2023-05-08T16:25:27.121Z,51.60
2023-05-08T16:27:53.931Z,51.60
2023-05-08T16:30:20.734Z,51.60
2023-05-08T16:32:47.770Z,51.60
2023-05-08T16:35:15.217Z,51.80
2023-05-08T16:37:42.298Z,51.90
2023-05-08T16:40:10.180Z,52.00
2023-05-08T16:42:37.453Z,52.00
2023-05-08T16:45:05.204Z,52.20
2023-05-08T16:47:32.845Z,52.10
2023-05-08T16:49:59.936Z,52.10
2023-05-08T16:52:26.930Z,52.10
2023-05-08T16:54:53.700Z,52.20
2023-05-08T16:57:20.486Z,52.10
2023-05-08T16:59:47.407Z,52.20
2023-05-08T17:02:18.557Z,52.30
2023-05-08T17:04:49.478Z,52.20
2023-05-08T17:07:17.305Z,52.30
2023-05-08T17:09:44.910Z,52.30
2023-05-08T17:12:11.790Z,52.30
2023-05-08T17:14:40.232Z,52.30
2023-05-08T17:17:07.318Z,52.30
2023-05-08T17:19:34.260Z,52.30
2023-05-08T17:22:01.304Z,52.20
2023-05-08T17:24:30.218Z,52.10
2023-05-08T17:26:57.044Z,52.10
2023-05-08T17:29:24.112Z,52.10
2023-05-08T17:31:50.972Z,52.00
2023-05-08T17:34:17.829Z,52.10
2023-05-08T17:36:44.735Z,52.20
2023-05-08T17:39:12.497Z,52.90
2023-05-08T17:41:39.273Z,52.20
2023-05-08T17:44:06.913Z,52.20
2023-05-08T17:46:33.734Z,52.20
2023-05-08T17:49:00.590Z,52.30
2023-05-08T17:51:27.430Z,52.30
2023-05-08T17:53:55.976Z,52.30
2023-05-08T17:56:23.340Z,52.30
2023-05-08T17:58:52.280Z,51.20
2023-05-08T18:01:20.092Z,52.30
2023-05-08T18:03:50.385Z,52.30
2023-05-08T18:06:18.219Z,52.20
2023-05-08T18:08:45.770Z,52.30
2023-05-08T18:11:20.883Z,52.30
2023-05-08T18:13:48.207Z,52.30
2023-05-08T18:16:17.042Z,52.30
2023-05-08T18:18:44.197Z,52.20
2023-05-08T18:21:11.278Z,52.30
2023-05-08T18:23:38.095Z,52.30
2023-05-08T18:26:05.539Z,52.30
2023-05-08T18:28:32.286Z,52.40
2023-05-08T18:30:59.117Z,52.40
2023-05-08T18:33:26.025Z,52.40
2023-05-08T18:35:52.765Z,52.50
2023-05-08T18:38:19.832Z,52.50
2023-05-08T18:40:46.619Z,52.50
2023-05-08T18:43:13.418Z,52.50
2023-05-08T18:45:41.451Z,52.60
2023-05-08T18:48:09.296Z,52.60
2023-05-08T18:50:36.282Z,52.60
2023-05-08T18:53:03.227Z,52.70
2023-05-08T18:55:30.004Z,52.60
2023-05-08T18:57:56.791Z,52.70
2023-05-08T19:00:23.741Z,52.70
2023-05-08T19:02:50.631Z,52.70
2023-05-08T19:05:17.821Z,52.70
2023-05-08T19:07:45.369Z,52.70
2023-05-08T19:10:12.549Z,52.80
2023-05-08T19:12:39.677Z,52.80
2023-05-08T19:15:08.834Z,52.80
2023-05-08T19:17:36.807Z,52.90
2023-05-08T19:20:04.313Z,52.80
2023-05-08T19:22:32.893Z,52.90
2023-05-08T19:25:01.692Z,52.80
2023-05-08T19:27:29.091Z,52.90
2023-05-08T19:29:55.982Z,52.90
2023-05-08T19:32:22.890Z,52.80
2023-05-08T19:34:49.716Z,52.90
2023-05-08T19:37:16.673Z,52.90
2023-05-08T19:39:43.562Z,52.90
2023-05-08T19:42:13.590Z,52.80
2023-05-08T19:44:40.858Z,52.90
2023-05-08T19:47:07.855Z,52.90
2023-05-08T19:49:34.757Z,52.90
2023-05-08T19:52:01.685Z,52.90
2023-05-08T19:54:29.975Z,52.90
2023-05-08T19:56:57.530Z,53.00
2023-05-08T19:59:24.355Z,52.90
2023-05-08T20:01:51.486Z,53.00
2023-05-08T20:04:18.289Z,53.00
2023-05-08T20:06:45.178Z,53.10
2023-05-08T20:09:12.027Z,53.70
2023-05-08T20:11:38.859Z,53.00
2023-05-08T20:14:05.674Z,53.00
2023-05-08T20:16:32.528Z,53.10
2023-05-08T20:19:01.580Z,53.10
2023-05-08T20:21:33.714Z,53.10
2023-05-08T20:24:01.134Z,53.10
2023-05-08T20:26:29.391Z,53.10
2023-05-08T20:28:56.963Z,53.10
2023-05-08T20:31:25.663Z,53.20
2023-05-08T20:33:52.649Z,53.40
2023-05-08T20:36:20.275Z,53.20
2023-05-08T20:38:47.235Z,53.50
2023-05-08T20:41:14.260Z,53.40
2023-05-08T20:43:41.089Z,53.50
2023-05-08T20:46:08.271Z,53.50
2023-05-08T20:48:35.349Z,53.50
2023-05-08T20:51:02.338Z,53.50
2023-05-08T20:53:29.295Z,53.50
2023-05-08T20:56:03.920Z,54.00
2023-05-08T20:58:31.169Z,53.80
2023-05-08T21:00:58.355Z,53.90
2023-05-08T21:03:25.300Z,53.90
2023-05-08T21:05:52.376Z,54.30
2023-05-08T21:08:28.247Z,53.90
2023-05-08T21:10:55.222Z,54.10
2023-05-08T21:13:22.215Z,54.10
2023-05-08T21:15:50.505Z,54.50
2023-05-08T21:18:17.980Z,54.30
2023-05-08T21:20:49.736Z,55.00
2023-05-08T21:23:18.100Z,54.30
2023-05-08T21:25:49.092Z,54.30
2023-05-08T21:28:16.593Z,54.30
2023-05-08T21:30:44.118Z,54.30
2023-05-08T21:33:13.525Z,54.50
2023-05-08T21:35:41.680Z,54.90
2023-05-08T21:38:09.005Z,54.50
2023-05-08T21:40:35.792Z,54.70
2023-05-08T21:43:02.654Z,54.70
2023-05-08T21:45:30.984Z,54.60
2023-05-08T21:47:58.803Z,54.90
2023-05-08T21:50:28.266Z,54.70
2023-05-08T21:52:56.500Z,54.70
2023-05-08T21:55:23.680Z,54.90
2023-05-08T21:57:50.878Z,54.90
2023-05-08T22:00:18.121Z,55.00
2023-05-08T22:02:47.960Z,54.80
2023-05-08T22:05:15.156Z,55.00
2023-05-08T22:07:42.191Z,54.90
2023-05-08T22:10:10.368Z,55.10
2023-05-08T22:12:37.434Z,54.90
2023-05-08T22:15:09.519Z,55.00
2023-05-08T22:17:42.014Z,55.10
2023-05-08T22:20:11.435Z,55.00
2023-05-08T22:22:38.239Z,55.10
2023-05-08T22:25:05.553Z,55.10
2023-05-08T22:27:32.302Z,55.10
2023-05-08T22:30:01.001Z,55.00
2023-05-08T22:32:28.569Z,55.20
2023-05-08T22:34:58.389Z,55.10
2023-05-08T22:37:26.035Z,55.10
2023-05-08T22:39:52.934Z,55.10
2023-05-08T22:42:19.919Z,55.20
2023-05-08T22:44:47.106Z,55.10
2023-05-08T22:47:14.129Z,55.20
2023-05-08T22:49:42.048Z,55.30
2023-05-08T22:52:09.655Z,55.20
2023-05-08T22:54:36.543Z,55.20
2023-05-08T22:57:03.825Z,55.20
2023-05-08T22:59:30.876Z,55.20
2023-05-08T23:01:57.788Z,55.20
2023-05-08T23:04:24.700Z,55.30
2023-05-08T23:06:51.615Z,55.20
2023-05-08T23:09:18.377Z,55.60
2023-05-08T23:11:45.669Z,55.40
2023-05-08T23:14:12.566Z,55.60
2023-05-08T23:16:39.486Z,55.40
2023-05-08T23:19:07.330Z,55.40
2023-05-08T23:21:34.223Z,55.40
2023-05-08T23:24:01.389Z,55.40
2023-05-08T23:26:28.606Z,55.80
2023-05-08T23:28:55.642Z,55.40
2023-05-08T23:31:22.507Z,55.50
2023-05-08T23:33:49.438Z,55.50
2023-05-08T23:36:16.633Z,55.50
2023-05-08T23:38:43.551Z,55.60
2023-05-08T23:41:11.362Z,55.50
2023-05-08T23:43:38.188Z,55.70
2023-05-08T23:46:06.426Z,55.50
2023-05-08T23:48:33.315Z,55.50
2023-05-08T23:51:00.171Z,55.50
2023-05-08T23:53:27.027Z,56.20
2023-05-08T23:55:53.819Z,55.50
2023-05-08T23:58:20.802Z,55.60
